OIZI  Iran Shahr Airport

Add Bookmark

Iran

Status
Operational
Latitude Longitude
27° 14' 9" N 60° 43' 12" E
27.236099 60.720001
Local (DST + 5) UTC (GMT + 4)
Jul 25, 2014 06:03 Jul 25, 2014 01:33
Sunrise-Sunset Local UTC
Begin Civil Twilight 05:20 00:50
Sunrise 05:46 01:16
Sunset 07:21 14:51
End Civil Twilight 07:46 15:16

Current Weather

METAR Observed MVFR
OIZI 250000Z 29004KT 6000 NSC 36/13 Q1000 Fri, Jul 25, 2014 @ 00:00 UTC
(1 Hour, 33 Minutes ago)
Marginal Visual Flight Rules

Decoded METAR

Wind Visibility Clouds Conditions
290° at 4 knots (7 kph) 6000 meters
  • Clear skies
  • No significant weather
Temperatures Readings Precipitation
Current Temp 36°C (97°F)
Dewpoint 13°C (55°F)
Humidity 25%
Altimeter 29.53"Hg
Sea Level Pressure 1000mb
Field Elevation 1938.98'
None Recorded

24 Hour Weather History

Loading
-

24 Hour Weather Graphs

Loading
-

CheckWX.com is intended as a tool to help pilots better visualize weather data. It is not intended as a substitute for an official weather briefing obtained from a Flight Service Station. CheckWX.com does not meet the FAA requirements for an official pre-flight weather briefing. Therefore, it's important that pilots still call and obtain an official FSS pre-flight weather briefing.